Time;durP1;ratioP1;P1;durP2;ratioP2;P2;SDS_P1;SDS_P2;PMS_P1;PMS_P2;Temp;Humidity;BMP_temperature;BMP_pressure;BME280_temperature;BME280_humidity;BME280_pressure;Samples;Min_cycle;Max_cycle;Signal;HPM_P1;HPM_P2
2021/12/05 00:18:31;;;;;;;0.00;0.00;;;;;;;4.16;79.19;97510.38;5040632;28;20215;-55
2021/12/05 00:23:47;;;;;;;0.00;0.00;;;;;;;4.17;78.70;97497.34;5049964;28;20329;-58
2021/12/05 00:26:18;;;;;;;0.00;0.00;;;;;;;4.18;78.06;97493.81;5050638;28;20184;-55
2021/12/05 00:59:58;;;;;;;0.00;0.00;;;;;;;4.14;76.11;97489.88;5045609;28;20702;-56
2021/12/05 01:02:38;;;;;;;0.00;0.00;;;;;;;4.08;76.26;97486.06;5038839;28;20246;-56
2021/12/05 01:08:07;;;;;;;0.00;0.00;;;;;;;4.10;75.15;97493.69;5005952;28;20183;-56
2021/12/05 01:10:53;;;;;;;0.00;0.00;;;;;;;4.09;75.08;97485.13;5069014;28;20711;-57
2021/12/05 01:13:42;;;;;;;0.00;0.00;;;;;;;4.10;75.35;97498.84;5061946;28;20844;-55
2021/12/05 01:16:13;;;;;;;0.00;0.00;;;;;;;4.16;75.35;97502.63;5042810;28;20184;-56
2021/12/05 01:18:41;;;;;;;0.00;0.00;;;;;;;4.14;75.18;97501.00;5041139;28;20203;-57
2021/12/05 01:21:13;;;;;;;0.00;0.00;;;;;;;4.09;75.87;97510.13;5037840;28;20297;-53
2021/12/05 01:23:51;;;;;;;0.00;0.00;;;;;;;4.21;74.37;97508.22;5038423;28;20188;-55
2021/12/05 01:26:22;;;;;;;0.00;0.00;;;;;;;4.10;77.33;97501.44;5043301;28;20317;-55
2021/12/05 01:29:06;;;;;;;0.00;0.00;;;;;;;4.01;77.31;97508.22;5049972;28;20669;-57
2021/12/05 01:31:41;;;;;;;0.00;0.00;;;;;;;4.05;77.32;97508.78;5046905;28;20612;-54
2021/12/05 01:34:25;;;;;;;0.00;0.00;;;;;;;3.93;79.40;97488.25;5043396;28;20286;-55
2021/12/05 01:37:04;;;;;;;0.00;0.00;;;;;;;3.93;77.10;97480.50;5075732;28;20217;-56
2021/12/05 01:39:50;;;;;;;0.00;0.00;;;;;;;3.81;78.96;97471.28;5042569;28;20220;-62
2021/12/05 01:45:53;;;;;;;0.00;0.00;;;;;;;3.68;81.08;97471.56;5011241;28;20220;-56
2021/12/05 01:49:03;;;;;;;0.00;0.00;;;;;;;3.60;83.49;97482.53;5046573;28;20280;-56
2021/12/05 02:00:48;;;;;;;0.00;0.00;;;;;;;3.30;85.82;97473.94;5075237;27;20729;-58
2021/12/05 02:09:03;;;;;;;0.00;0.00;;;;;;;3.12;86.98;97460.09;5051640;28;20195;-55
2021/12/05 02:11:54;;;;;;;0.00;0.00;;;;;;;3.12;87.05;97455.72;5056211;28;20564;-55
2021/12/05 02:31:28;;;;;;;0.00;0.00;;;;;;;3.12;85.27;97439.47;5056918;28;20241;-56
2021/12/05 02:34:09;;;;;;;0.00;0.00;;;;;;;3.20;85.08;97431.84;5062782;28;20272;-56
2021/12/05 02:36:56;;;;;;;0.00;0.00;;;;;;;3.21;86.41;97433.47;5058349;28;20281;-56
2021/12/05 02:39:40;;;;;;;0.00;0.00;;;;;;;3.23;84.74;97445.31;5055703;28;20207;-56
2021/12/05 02:42:12;;;;;;;0.00;0.00;;;;;;;3.30;84.03;97432.69;5057204;28;20194;-57
2021/12/05 02:44:41;;;;;;;0.00;0.00;;;;;;;3.32;83.29;97435.13;5058326;28;20182;-57
2021/12/05 02:47:12;;;;;;;0.00;0.00;;;;;;;3.27;84.23;97432.94;5058469;28;20183;-56
2021/12/05 02:49:43;;;;;;;0.00;0.00;;;;;;;3.29;85.04;97437.97;5059791;28;20731;-57
2021/12/05 02:52:16;;;;;;;0.00;0.00;;;;;;;3.21;86.72;97438.63;5063735;28;20195;-56
2021/12/05 02:54:49;;;;;;;0.00;0.00;;;;;;;3.17;86.85;97447.63;5058801;28;20592;-58
2021/12/05 02:57:24;;;;;;;0.00;0.00;;;;;;;3.15;88.51;97434.03;5054372;28;20201;-58
2021/12/05 02:59:56;;;;;;;0.00;0.00;;;;;;;3.12;87.59;97434.31;5055118;28;20227;-56
2021/12/05 03:02:38;;;;;;;0.00;0.00;;;;;;;3.08;88.77;97441.47;5065580;28;20194;-55
2021/12/05 03:05:09;;;;;;;0.00;0.00;;;;;;;3.05;89.16;97428.84;5058422;28;20660;-58
2021/12/05 03:07:39;;;;;;;0.00;0.00;;;;;;;3.04;89.61;97435.78;5062783;28;20199;-58
2021/12/05 03:10:13;;;;;;;0.00;0.00;;;;;;;3.06;91.20;97423.56;5054350;28;20576;-57
2021/12/05 03:12:40;;;;;;;0.00;0.00;;;;;;;3.07;90.93;97437.25;5044691;28;20614;-59
2021/12/05 03:15:11;;;;;;;0.00;0.00;;;;;;;2.99;91.18;97434.53;5034639;28;20670;-56
2021/12/05 03:17:38;;;;;;;0.00;0.00;;;;;;;2.97;91.57;97423.53;5045550;28;20325;-56
2021/12/05 03:20:07;;;;;;;0.00;0.00;;;;;;;2.97;92.22;97424.38;5040354;28;20207;-56
2021/12/05 03:22:35;;;;;;;0.00;0.00;;;;;;;2.89;91.27;97417.28;5045325;28;20694;-59
2021/12/05 03:25:03;;;;;;;0.00;0.00;;;;;;;2.78;90.82;97420.78;5048232;28;20199;-58
2021/12/05 03:27:34;;;;;;;0.00;0.00;;;;;;;2.70;91.28;97417.22;5050785;28;20187;-59
2021/12/05 03:30:05;;;;;;;0.00;0.00;;;;;;;2.59;91.76;97429.28;5039305;28;20215;-58
2021/12/05 03:32:35;;;;;;;0.00;0.00;;;;;;;2.46;93.07;97424.31;5041313;28;20276;-57
2021/12/05 03:35:04;;;;;;;0.00;0.00;;;;;;;2.39;92.18;97419.84;5041328;28;20192;-60
2021/12/05 03:37:30;;;;;;;0.00;0.00;;;;;;;2.41;91.75;97415.38;5040576;28;20183;-58
2021/12/05 03:40:01;;;;;;;0.00;0.00;;;;;;;2.36;91.48;97408.00;5047863;28;20683;-59
2021/12/05 03:42:33;;;;;;;0.00;0.00;;;;;;;2.32;90.65;97402.31;5050781;28;20199;-58
2021/12/05 03:45:05;;;;;;;0.00;0.00;;;;;;;2.29;91.47;97396.59;5051082;28;20195;-59
2021/12/05 03:47:32;;;;;;;0.00;0.00;;;;;;;2.23;92.25;97397.94;5052655;28;20257;-58
2021/12/05 03:49:59;;;;;;;0.00;0.00;;;;;;;2.25;91.87;97378.03;5049984;28;20239;-56
2021/12/05 03:52:27;;;;;;;0.00;0.00;;;;;;;2.36;91.90;97388.25;5051083;28;20218;-56
2021/12/05 03:54:54;;;;;;;0.00;0.00;;;;;;;2.36;91.42;97388.25;5047383;28;20205;-57
2021/12/05 03:57:21;;;;;;;0.00;0.00;;;;;;;2.41;90.40;97392.19;5049736;28;20816;-54
2021/12/05 03:59:51;;;;;;;0.00;0.00;;;;;;;2.48;90.16;97386.38;5049811;28;20210;-55
2021/12/05 04:02:18;;;;;;;0.00;0.00;;;;;;;2.51;90.08;97386.13;5050840;28;20196;-56
2021/12/05 04:04:45;;;;;;;0.00;0.00;;;;;;;2.55;89.90;97389.25;5051722;28;20188;-61
2021/12/05 04:07:15;;;;;;;0.00;0.00;;;;;;;2.55;89.87;97386.69;5050681;28;20199;-57
2021/12/05 04:09:43;;;;;;;0.00;0.00;;;;;;;2.53;89.83;97383.44;5050082;28;20208;-62
2021/12/05 04:12:11;;;;;;;0.00;0.00;;;;;;;2.53;88.98;97383.44;5046250;28;20298;-56
2021/12/05 04:14:43;;;;;;;0.00;0.00;;;;;;;2.58;88.25;97390.75;5049502;28;20191;-57
2021/12/05 04:17:16;;;;;;;0.00;0.00;;;;;;;2.58;88.68;97372.72;5044016;28;20199;-56
2021/12/05 04:19:43;;;;;;;0.00;0.00;;;;;;;2.65;88.49;97381.56;5049661;28;20546;-59
2021/12/05 04:22:11;;;;;;;0.00;0.00;;;;;;;2.70;87.91;97379.41;5050178;28;20191;-57
2021/12/05 04:24:40;;;;;;;0.00;0.00;;;;;;;2.64;87.51;97367.88;5052037;28;20194;-59
2021/12/05 04:27:09;;;;;;;0.00;0.00;;;;;;;2.65;87.93;97381.56;5048720;28;20203;-58
2021/12/05 04:29:37;;;;;;;0.00;0.00;;;;;;;2.57;88.62;97371.09;5047103;28;20214;-56
2021/12/05 04:32:06;;;;;;;0.00;0.00;;;;;;;2.54;88.66;97366.19;5050734;28;20545;-56
2021/12/05 04:34:34;;;;;;;0.00;0.00;;;;;;;2.56;88.88;97372.88;5050261;28;20203;-57
2021/12/05 04:37:02;;;;;;;0.00;0.00;;;;;;;2.51;87.99;97372.44;5050612;28;20195;-55
2021/12/05 04:39:32;;;;;;;0.00;0.00;;;;;;;2.45;89.40;97371.19;5050571;28;20269;-60
2021/12/05 04:41:59;;;;;;;0.00;0.00;;;;;;;2.43;88.46;97373.06;5050031;28;20187;-55
2021/12/05 04:44:27;;;;;;;0.00;0.00;;;;;;;2.30;87.81;97364.75;5048993;28;20195;-59
2021/12/05 04:47:00;;;;;;;0.00;0.00;;;;;;;2.29;87.92;97371.69;5046613;28;20191;-57
2021/12/05 04:49:29;;;;;;;0.00;0.00;;;;;;;2.29;89.07;97366.53;5049273;28;20225;-57
2021/12/05 04:51:58;;;;;;;0.00;0.00;;;;;;;2.31;89.47;97371.53;5051285;28;20211;-57
2021/12/05 04:54:25;;;;;;;0.00;0.00;;;;;;;2.28;89.75;97375.19;5050168;28;20604;-57
2021/12/05 04:56:52;;;;;;;0.00;0.00;;;;;;;2.39;88.83;97361.41;5050546;28;20186;-57
2021/12/05 04:59:31;;;;;;;0.00;0.00;;;;;;;2.43;88.89;97365.34;5049375;28;20232;-57
2021/12/05 05:01:58;;;;;;;0.00;0.00;;;;;;;2.46;87.05;97370.25;5051379;28;20585;-53
2021/12/05 05:04:27;;;;;;;0.00;0.00;;;;;;;2.46;86.98;97361.72;5048394;28;20267;-58
2021/12/05 05:06:56;;;;;;;0.00;0.00;;;;;;;2.45;87.28;97366.03;5049901;28;20199;-56
2021/12/05 05:09:25;;;;;;;0.00;0.00;;;;;;;2.47;88.23;97366.72;5051226;28;20195;-56
2021/12/05 05:11:51;;;;;;;0.00;0.00;;;;;;;2.50;87.09;97363.88;5049997;28;20245;-57
2021/12/05 05:14:18;;;;;;;0.00;0.00;;;;;;;2.52;86.70;97363.75;5051338;28;20522;-57
2021/12/05 05:16:48;;;;;;;0.00;0.00;;;;;;;2.47;87.05;97369.28;5042811;28;20195;-62
2021/12/05 05:19:17;;;;;;;0.00;0.00;;;;;;;2.43;86.77;97367.13;5050189;28;20207;-56
2021/12/05 05:21:50;;;;;;;0.00;0.00;;;;;;;2.43;85.26;97360.19;5048280;28;20187;-56
2021/12/05 05:27:34;;;;;;;0.00;0.00;;;;;;;2.48;83.86;97360.63;5050161;28;20199;-57
2021/12/05 05:30:29;;;;;;;0.00;0.00;;;;;;;2.52;84.26;97363.75;5049794;28;20210;-59
2021/12/05 05:44:32;;;;;;;0.00;0.00;;;;;;;3.15;82.05;97369.56;5045227;28;20203;-58
2021/12/05 05:47:04;;;;;;;0.00;0.00;;;;;;;3.15;81.55;97374.72;5047967;28;20253;-57
2021/12/05 05:49:51;;;;;;;0.00;0.00;;;;;;;3.14;81.60;97367.94;5049449;28;20302;-61
2021/12/05 05:52:19;;;;;;;0.00;0.00;;;;;;;3.17;81.69;97383.16;5050813;28;20257;-57
2021/12/05 05:54:48;;;;;;;0.00;0.00;;;;;;;3.25;82.26;97391.00;5049923;28;20241;-61
2021/12/05 05:57:21;;;;;;;0.00;0.00;;;;;;;3.27;83.06;97396.84;5045754;28;20219;-59
2021/12/05 05:59:56;;;;;;;0.00;0.00;;;;;;;3.28;81.42;97395.88;5045980;28;20215;-57
2021/12/05 06:05:08;;;;;;;0.00;0.00;;;;;;;3.29;82.53;97402.69;5050897;28;20191;-57
2021/12/05 06:07:41;;;;;;;0.00;0.00;;;;;;;3.31;81.92;97387.88;5050725;28;20187;-59
2021/12/05 06:10:09;;;;;;;0.00;0.00;;;;;;;3.30;82.30;97391.41;5049285;28;20249;-58
2021/12/05 06:12:35;;;;;;;0.00;0.00;;;;;;;3.24;82.81;97385.03;5048752;28;20195;-56
2021/12/05 06:15:04;;;;;;;0.00;0.00;;;;;;;3.24;82.79;97391.94;5048003;28;20206;-56
2021/12/05 06:17:31;;;;;;;0.00;0.00;;;;;;;3.17;83.23;97383.16;5045930;28;20196;-57
2021/12/05 06:19:58;;;;;;;0.00;0.00;;;;;;;3.09;82.83;97386.38;5045953;28;20229;-56
2021/12/05 06:22:26;;;;;;;0.00;0.00;;;;;;;2.95;83.88;97387.59;5049436;28;20568;-54
2021/12/05 06:24:53;;;;;;;0.00;0.00;;;;;;;2.83;84.45;97378.34;5050308;28;20634;-58
2021/12/05 06:27:20;;;;;;;0.00;0.00;;;;;;;2.74;85.12;97382.50;5050577;28;20183;-57
2021/12/05 06:29:52;;;;;;;0.00;0.00;;;;;;;2.57;84.97;97376.25;5048608;28;20199;-59
2021/12/05 06:32:41;;;;;;;0.00;0.00;;;;;;;2.50;85.37;97384.47;5047534;28;20194;-60
2021/12/05 06:38:06;;;;;;;0.00;0.00;;;;;;;2.35;86.38;97383.22;5043789;28;20560;-57
2021/12/05 06:40:52;;;;;;;0.00;0.00;;;;;;;2.34;86.81;97381.56;5048895;28;20219;-59
2021/12/05 06:46:04;;;;;;;0.00;0.00;;;;;;;2.25;86.90;97379.78;5052705;28;20186;-56
2021/12/05 06:48:33;;;;;;;0.00;0.00;;;;;;;2.28;86.42;97379.50;5053631;28;20183;-59
2021/12/05 06:51:00;;;;;;;0.00;0.00;;;;;;;2.29;86.09;97381.16;5050809;28;20227;-59
2021/12/05 06:53:27;;;;;;;0.00;0.00;;;;;;;2.27;84.75;97376.13;5052512;28;20198;-59
2021/12/05 06:55:54;;;;;;;0.00;0.00;;;;;;;2.19;85.88;97381.91;5053016;28;20209;-58
2021/12/05 06:58:21;;;;;;;0.00;0.00;;;;;;;2.20;84.49;97380.97;5053262;28;20286;-57
2021/12/05 07:00:48;;;;;;;0.00;0.00;;;;;;;2.15;85.45;97382.31;5052621;28;20265;-59
2021/12/05 07:03:15;;;;;;;0.00;0.00;;;;;;;2.10;85.07;97371.59;5053472;28;20184;-55
2021/12/05 07:05:49;;;;;;;0.00;0.00;;;;;;;2.02;85.52;97372.25;5053895;28;20270;-57
2021/12/05 07:08:17;;;;;;;0.00;0.00;;;;;;;2.01;85.27;97376.56;5051708;28;20671;-59
2021/12/05 07:10:53;;;;;;;0.00;0.00;;;;;;;2.04;86.26;97372.94;5048618;28;20219;-57
2021/12/05 07:16:12;;;;;;;0.00;0.00;;;;;;;2.06;85.64;97391.63;5048000;28;20202;-59
2021/12/05 07:18:49;;;;;;;0.00;0.00;;;;;;;2.09;85.57;97385.41;5045972;28;20187;-59
2021/12/05 07:21:29;;;;;;;0.00;0.00;;;;;;;2.09;86.24;97393.94;5052518;28;20222;-59
2021/12/05 07:24:05;;;;;;;0.00;0.00;;;;;;;2.16;85.23;97389.91;5053145;28;20548;-59
2021/12/05 07:26:47;;;;;;;0.00;0.00;;;;;;;2.30;83.87;97388.75;5052218;28;20191;-58
2021/12/05 07:40:25;;;;;;;0.00;0.00;;;;;;;2.93;82.90;97395.44;5051685;28;20257;-58
2021/12/05 07:42:52;;;;;;;0.00;0.00;;;;;;;2.94;84.04;97401.44;5053529;28;20273;-55
2021/12/05 07:45:23;;;;;;;0.00;0.00;;;;;;;2.94;84.19;97398.84;5050224;28;20192;-58
2021/12/05 07:47:52;;;;;;;0.00;0.00;;;;;;;2.84;82.49;97396.25;5050244;28;20202;-59
2021/12/05 07:50:25;;;;;;;0.00;0.00;;;;;;;2.87;82.19;97395.97;5052092;28;20285;-56
2021/12/05 07:52:59;;;;;;;0.00;0.00;;;;;;;2.86;82.51;97394.34;5052544;28;20195;-58
2021/12/05 07:55:31;;;;;;;0.00;0.00;;;;;;;2.87;81.71;97395.97;5052540;28;20187;-58
2021/12/05 07:58:09;;;;;;;0.00;0.00;;;;;;;2.89;82.32;97398.44;5052689;28;20191;-57
2021/12/05 08:00:45;;;;;;;0.00;0.00;;;;;;;2.92;82.24;97393.00;5051372;28;20210;-56
2021/12/05 08:14:35;;;;;;;0.00;0.00;;;;;;;3.31;79.60;97382.72;5052734;28;20188;-56
2021/12/05 08:17:03;;;;;;;0.00;0.00;;;;;;;3.39;80.07;97380.28;5051988;28;20188;-57
2021/12/05 08:19:30;;;;;;;0.00;0.00;;;;;;;3.50;79.57;97386.25;5047054;28;20215;-60
2021/12/05 08:21:57;;;;;;;0.00;0.00;;;;;;;3.53;79.27;97384.22;5050675;28;20245;-57
2021/12/05 08:24:29;;;;;;;0.00;0.00;;;;;;;3.60;79.61;97381.91;5051439;28;20191;-56
2021/12/05 08:26:56;;;;;;;0.00;0.00;;;;;;;3.63;78.58;97379.06;5052422;28;20191;-57
2021/12/05 08:29:31;;;;;;;0.00;0.00;;;;;;;3.74;77.72;97385.03;5051986;28;20184;-56
2021/12/05 08:32:12;;;;;;;0.00;0.00;;;;;;;3.80;78.37;97382.69;5051664;28;20672;-58
2021/12/05 09:24:41;;;;;;;0.00;0.00;;;;;;;4.41;76.34;97434.88;5012483;28;20208;-57
2021/12/05 09:30:24;;;;;;;0.00;0.00;;;;;;;4.52;77.71;97439.03;5049022;28;20267;-59
2021/12/05 10:03:36;;;;;;;5.40;1.10;;;;;;;5.26;75.55;97446.84;5050759;28;20195;-56
2021/12/05 10:08:56;;;;;;;3.73;0.97;;;;;;;5.13;75.58;97434.28;5050291;28;20699;-57
2021/12/05 10:11:37;;;;;;;6.23;1.27;;;;;;;5.02;75.70;97439.66;5049320;28;20612;-59
2021/12/05 10:14:34;;;;;;;4.93;1.20;;;;;;;4.89;75.96;97432.22;5050057;28;20213;-58
2021/12/05 10:17:35;;;;;;;4.27;1.30;;;;;;;4.71;75.38;97432.19;5050824;28;20197;-56
2021/12/05 10:26:01;;;;;;;3.90;0.97;;;;;;;4.60;76.28;97430.59;5050185;28;20268;-58
2021/12/05 10:26:34;;;;;;;3.30;1.07;;;;;;;4.76;75.66;97429.97;5053401;28;20205;-57
2021/12/05 10:35:05;;;;;;;2.80;0.90;;;;;;;5.07;74.47;97427.09;5054323;28;20199;-57
2021/12/05 10:37:37;;;;;;;2.07;0.73;;;;;;;5.09;74.33;97429.53;5053808;28;20194;-57
2021/12/05 10:40:07;;;;;;;2.87;0.80;;;;;;;5.07;73.98;97434.03;5051930;28;20207;-57
2021/12/05 10:42:43;;;;;;;2.37;0.73;;;;;;;5.19;74.70;97429.47;5050989;28;20188;-58
2021/12/05 10:45:26;;;;;;;3.07;1.60;;;;;;;5.24;76.26;97428.06;5053465;28;20221;-58
2021/12/05 10:47:55;;;;;;;2.80;1.33;;;;;;;5.22;73.11;97432.56;5051530;28;20278;-55
2021/12/05 10:50:32;;;;;;;3.03;1.47;;;;;;;5.34;73.32;97428.00;5052509;28;20210;-59
2021/12/05 10:53:25;;;;;;;1.63;0.83;;;;;;;5.49;71.12;97437.84;5053463;28;20298;-57
2021/12/05 10:55:58;;;;;;;6.77;3.53;;;;;;;5.40;71.68;97424.00;5053555;28;20195;-58
2021/12/05 10:58:29;;;;;;;4.83;1.40;;;;;;;5.29;72.14;97427.66;5050250;28;20201;-59
2021/12/05 11:01:09;;;;;;;6.30;1.30;;;;;;;5.28;72.84;97429.41;5050824;28;20276;-58
2021/12/05 11:03:38;;;;;;;4.97;1.30;;;;;;;5.24;74.52;97430.66;5053799;28;20198;-59
2021/12/05 11:06:18;;;;;;;2.53;1.00;;;;;;;5.24;72.49;97422.91;5053288;28;20587;-59
2021/12/05 11:08:47;;;;;;;7.20;0.73;;;;;;;5.25;73.51;97421.94;5045885;28;20202;-59
2021/12/05 11:11:15;;;;;;;3.83;1.47;;;;;;;5.21;73.32;97430.16;5053151;28;20204;-59
2021/12/05 11:13:45;;;;;;;2.93;0.77;;;;;;;5.35;73.06;97424.44;5053234;28;20187;-57
2021/12/05 11:16:47;;;;;;;4.20;0.90;;;;;;;5.32;72.80;97425.56;5051361;28;20199;-57
2021/12/05 11:19:21;;;;;;;1.57;0.80;;;;;;;5.50;71.74;97421.34;5047646;28;20214;-57
2021/12/05 11:21:53;;;;;;;3.17;0.80;;;;;;;5.57;72.16;97427.56;5043391;28;20280;-59
2021/12/05 11:24:28;;;;;;;3.43;0.97;;;;;;;5.68;72.72;97426.53;5047064;28;20275;-58
2021/12/05 11:27:21;;;;;;;2.53;0.90;;;;;;;5.72;71.18;97425.28;5053131;28;20186;-59
2021/12/05 11:30:02;;;;;;;4.60;0.73;;;;;;;5.89;70.52;97428.78;5038593;28;20230;-59
2021/12/05 11:32:37;;;;;;;4.20;0.90;;;;;;;5.96;70.19;97431.56;5052308;28;20714;-59
2021/12/05 11:35:25;;;;;;;1.70;0.83;;;;;;;5.96;68.63;97429.81;5049501;28;20190;-59
2021/12/05 11:37:56;;;;;;;2.37;0.83;;;;;;;5.77;69.55;97420.47;5047255;28;20199;-59
2021/12/05 11:40:26;;;;;;;3.40;0.60;;;;;;;5.96;69.94;97424.63;5051963;28;20207;-59
2021/12/05 11:42:56;;;;;;;4.10;0.73;;;;;;;5.99;70.09;97431.28;5052465;28;20183;-58
2021/12/05 11:45:23;;;;;;;2.20;0.53;;;;;;;5.87;68.35;97428.91;5052894;28;20179;-59
2021/12/05 11:47:53;;;;;;;5.40;1.83;;;;;;;5.91;68.83;97424.28;5052789;28;20187;-59
2021/12/05 11:50:29;;;;;;;1.50;0.80;;;;;;;5.79;68.73;97418.53;5051083;28;20691;-59
2021/12/05 11:52:56;;;;;;;2.57;0.70;;;;;;;5.65;70.04;97422.44;5048865;28;20214;-59
2021/12/05 11:55:27;;;;;;;2.70;0.90;;;;;;;5.89;70.58;97410.66;5049935;28;20525;-59
2021/12/05 11:57:54;;;;;;;2.90;0.97;;;;;;;5.90;69.31;97404.50;5051487;28;20204;-59
2021/12/05 12:00:23;;;;;;;3.73;1.00;;;;;;;6.04;68.86;97406.59;5051415;28;20214;-59
2021/12/05 12:02:51;;;;;;;4.13;0.80;;;;;;;6.16;69.56;97409.72;5050792;28;20206;-59
2021/12/05 12:05:21;;;;;;;2.07;0.87;;;;;;;6.25;67.61;97392.47;5051874;28;20183;-59
2021/12/05 12:07:52;;;;;;;3.80;0.60;;;;;;;6.22;69.39;97397.97;5052115;28;20552;-59
2021/12/05 12:10:24;;;;;;;2.00;1.10;;;;;;;6.25;65.89;97394.22;5047458;28;20218;-59
2021/12/05 12:12:55;;;;;;;7.33;3.70;;;;;;;6.13;66.90;97404.06;5045851;28;20896;-59
2021/12/05 12:15:25;;;;;;;3.30;1.17;;;;;;;6.19;66.39;97400.84;5046406;28;20561;-59
2021/12/05 12:17:55;;;;;;;1.60;0.80;;;;;;;6.35;67.91;97395.75;5041676;28;20627;-59
2021/12/05 12:20:25;;;;;;;3.23;1.00;;;;;;;6.42;66.66;97389.94;5040112;28;20208;-59
2021/12/05 12:22:55;;;;;;;7.40;3.07;;;;;;;6.40;68.68;97390.09;5044752;28;20209;-59
2021/12/05 12:25:26;;;;;;;15.23;5.93;;;;;;;6.24;67.78;97390.00;5039429;28;20265;-59
2021/12/05 12:27:55;;;;;;;13.83;5.73;;;;;;;6.24;68.41;97387.41;5049968;28;20248;-59
2021/12/05 12:30:26;;;;;;;6.93;2.60;;;;;;;6.32;67.10;97388.28;5044521;28;20582;-59
2021/12/05 12:32:56;;;;;;;2.80;1.10;;;;;;;6.38;67.64;97388.63;5043932;28;20257;-59
2021/12/05 12:35:29;;;;;;;2.87;0.70;;;;;;;6.32;67.21;97390.06;5041485;28;20187;-59
2021/12/05 12:38:01;;;;;;;5.60;2.40;;;;;;;6.48;65.84;97395.31;5043074;28;20194;-59
2021/12/05 12:40:42;;;;;;;5.63;2.40;;;;;;;6.47;66.15;97392.88;5038452;28;20215;-59
2021/12/05 12:43:35;;;;;;;4.60;1.17;;;;;;;6.32;65.67;97393.47;5044790;28;20195;-59
2021/12/05 12:46:17;;;;;;;7.57;2.07;;;;;;;5.89;68.25;97388.16;5047711;28;20192;-59
2021/12/05 12:48:43;;;;;;;7.00;1.90;;;;;;;5.86;69.61;97385.06;5042437;28;20226;-59
2021/12/05 12:51:26;;;;;;;2.47;1.30;;;;;;;5.73;69.64;97383.69;5041184;28;20224;-59
2021/12/05 12:53:56;;;;;;;5.60;1.40;;;;;;;5.74;70.68;97380.13;5042246;28;20192;-59
2021/12/05 12:56:24;;;;;;;3.53;1.30;;;;;;;5.80;70.49;97389.09;5042097;28;20257;-59
2021/12/05 12:58:55;;;;;;;4.27;1.50;;;;;;;5.97;69.81;97381.41;5043924;28;20383;-59
2021/12/05 13:01:49;;;;;;;3.30;1.53;;;;;;;5.86;69.71;97383.28;5049422;28;20560;-59
2021/12/05 13:04:38;;;;;;;2.93;1.10;;;;;;;5.97;68.71;97389.16;5044168;28;20204;-59
2021/12/05 13:09:57;;;;;;;4.63;1.70;;;;;;;5.81;70.03;97384.69;5041422;28;20188;-59
2021/12/05 13:10:17;;;;;;;4.40;1.30;;;;;;;5.72;68.95;97391.59;5040286;28;20239;-58
2021/12/05 13:12:54;;;;;;;4.73;1.93;;;;;;;5.72;70.32;97383.84;5040897;28;20188;-58
2021/12/05 13:15:29;;;;;;;4.40;1.00;;;;;;;5.56;71.77;97379.34;5042196;28;20195;-59
2021/12/05 13:17:58;;;;;;;6.20;3.13;;;;;;;5.68;70.61;97380.72;5050040;28;20199;-58
2021/12/05 13:20:28;;;;;;;4.77;2.13;;;;;;;5.74;71.03;97377.53;5044285;28;20214;-59
2021/12/05 13:23:00;;;;;;;5.57;2.47;;;;;;;5.77;70.11;97376.44;5042432;28;20271;-59
2021/12/05 13:25:29;;;;;;;4.47;2.50;;;;;;;5.75;69.70;97378.38;5033155;28;20199;-59
2021/12/05 13:27:57;;;;;;;6.73;1.30;;;;;;;5.71;71.96;97377.03;5039548;28;20215;-58
2021/12/05 13:30:33;;;;;;;6.83;2.20;;;;;;;5.93;72.51;97383.50;5040931;28;20711;-59
2021/12/05 13:33:17;;;;;;;4.30;1.37;;;;;;;6.30;70.02;97381.63;5047966;28;20214;-59
2021/12/05 13:35:45;;;;;;;7.77;1.33;;;;;;;6.27;69.63;97377.56;5045591;28;20195;-59
2021/12/05 13:38:34;;;;;;;4.27;1.20;;;;;;;6.39;68.05;97377.28;5042595;28;20188;-59
2021/12/05 13:41:13;;;;;;;4.60;1.27;;;;;;;6.52;70.31;97382.06;5038228;28;20291;-58
2021/12/05 13:43:41;;;;;;;5.43;1.23;;;;;;;6.71;68.10;97376.63;5039248;28;20227;-57
2021/12/05 13:46:32;;;;;;;2.63;1.30;;;;;;;6.94;67.98;97383.78;5040085;28;20186;-59
2021/12/05 13:49:00;;;;;;;3.17;1.03;;;;;;;7.11;68.04;97383.84;5044335;28;20198;-59
2021/12/05 13:51:27;;;;;;;6.20;1.23;;;;;;;7.29;66.46;97384.53;5045582;28;20211;-59
2021/12/05 13:53:59;;;;;;;5.37;1.60;;;;;;;7.43;64.91;97390.06;5042279;28;20668;-59
2021/12/05 13:56:28;;;;;;;5.27;0.83;;;;;;;8.32;80.29;97386.72;5049864;28;20249;-56
2021/12/05 13:58:59;;;;;;;4.43;1.00;;;;;;;9.42;68.84;97395.47;5050960;28;20276;-59
2021/12/05 14:01:29;;;;;;;3.63;1.10;;;;;;;9.66;60.42;97391.88;5050058;28;20262;-56
2021/12/05 14:04:25;;;;;;;3.73;1.50;;;;;;;9.43;59.57;97392.69;5047521;28;20673;-56
2021/12/05 14:06:57;;;;;;;5.03;1.83;;;;;;;8.81;58.34;97390.94;5047685;28;20200;-58
2021/12/05 14:09:27;;;;;;;3.53;1.43;;;;;;;8.44;60.10;97387.97;5047952;28;20193;-58
2021/12/05 14:11:58;;;;;;;2.23;1.30;;;;;;;7.74;63.17;97398.00;5049916;28;20201;-58
2021/12/05 14:14:28;;;;;;;5.73;1.60;;;;;;;7.07;64.33;97397.13;5050852;28;20204;-59
2021/12/05 14:16:58;;;;;;;6.80;1.53;;;;;;;6.53;65.87;97402.63;5051099;28;20245;-56
2021/12/05 14:19:30;;;;;;;4.23;1.37;;;;;;;6.10;67.58;97401.75;5050364;28;20610;-56
2021/12/05 14:22:00;;;;;;;2.53;1.00;;;;;;;5.78;68.97;97406.53;5048766;28;20203;-55
2021/12/05 14:24:32;;;;;;;6.00;1.10;;;;;;;5.51;70.06;97404.84;5046662;28;20191;-58
2021/12/05 14:27:02;;;;;;;2.53;1.07;;;;;;;5.31;70.05;97405.81;5049473;28;20199;-58
2021/12/05 14:29:31;;;;;;;2.83;1.40;;;;;;;5.10;70.94;97413.88;5050531;28;20196;-58
2021/12/05 14:32:00;;;;;;;4.03;1.50;;;;;;;4.92;72.75;97405.28;5050419;28;20211;-58
2021/12/05 14:34:29;;;;;;;5.70;2.70;;;;;;;4.77;74.19;97404.94;5050172;28;20179;-58
2021/12/05 14:36:58;;;;;;;8.60;3.80;;;;;;;4.60;76.02;97402.16;5050633;28;20202;-58
2021/12/05 14:39:28;;;;;;;7.53;3.90;;;;;;;4.48;76.64;97405.91;5048667;28;20200;-58
2021/12/05 14:41:58;;;;;;;9.40;3.30;;;;;;;4.31;77.35;97413.44;5047277;28;20204;-57
2021/12/05 14:44:26;;;;;;;46.10;30.73;;;;;;;4.10;77.42;97405.88;5050506;28;20257;-57
2021/12/05 14:46:59;;;;;;;14.80;8.83;;;;;;;3.94;77.83;97416.78;5050287;28;20619;-57
2021/12/05 14:49:30;;;;;;;11.60;6.07;;;;;;;3.86;78.84;97411.47;5049812;28;20194;-58
2021/12/05 14:51:57;;;;;;;7.97;4.67;;;;;;;3.77;80.87;97415.72;5050170;28;20194;-57
2021/12/05 14:54:32;;;;;;;7.60;3.10;;;;;;;3.65;80.69;97420.22;5050516;28;20207;-56
2021/12/05 14:56:59;;;;;;;4.73;2.53;;;;;;;3.54;80.21;97411.66;5049130;28;20199;-58
2021/12/05 14:59:27;;;;;;;3.53;1.93;;;;;;;3.40;82.02;97425.75;5047820;28;20195;-57
2021/12/05 15:01:57;;;;;;;3.07;1.00;;;;;;;3.38;83.52;97434.59;5049742;28;20676;-57
2021/12/05 15:04:34;;;;;;;3.80;1.50;;;;;;;3.37;83.84;97445.88;5050400;28;20190;-58
2021/12/05 15:07:01;;;;;;;2.30;1.40;;;;;;;3.34;84.02;97448.72;5052825;28;20180;-57
2021/12/05 15:09:34;;;;;;;6.00;2.47;;;;;;;3.40;82.96;97453.34;5051457;28;20194;-57
2021/12/05 15:12:04;;;;;;;10.80;3.80;;;;;;;3.33;83.81;97455.63;5053276;28;20194;-58
2021/12/05 15:14:32;;;;;;;7.90;4.23;;;;;;;3.25;84.77;97460.63;5052386;28;20214;-58
2021/12/05 15:17:10;;;;;;;7.73;4.27;;;;;;;3.22;84.56;97468.63;5053105;28;20187;-58
2021/12/05 15:19:41;;;;;;;4.50;3.13;;;;;;;3.25;84.76;97476.09;5053195;28;20234;-58
2021/12/05 15:22:09;;;;;;;7.70;3.40;;;;;;;3.28;86.15;97480.19;5053610;28;20739;-57
2021/12/05 15:24:36;;;;;;;4.23;3.00;;;;;;;3.28;85.79;97477.63;5053393;28;20187;-58
2021/12/05 15:27:10;;;;;;;3.40;1.93;;;;;;;3.27;86.15;97473.41;5045834;28;20191;-58
2021/12/05 15:29:37;;;;;;;3.63;1.93;;;;;;;3.24;86.58;97475.31;5052811;28;20219;-55
2021/12/05 15:32:05;;;;;;;3.10;1.90;;;;;;;3.23;86.44;97480.59;5052988;28;20191;-57
2021/12/05 15:34:34;;;;;;;12.37;4.80;;;;;;;3.24;88.58;97477.88;5053595;28;20179;-58
2021/12/05 15:37:10;;;;;;;9.30;5.73;;;;;;;3.19;86.57;97485.19;5052033;28;20317;-56
2021/12/05 15:39:38;;;;;;;8.53;4.80;;;;;;;3.14;83.54;97483.97;5052418;28;20777;-60
2021/12/05 15:42:15;;;;;;;7.60;3.60;;;;;;;3.08;84.15;97480.16;5052716;28;20688;-58
2021/12/05 15:44:43;;;;;;;7.13;3.40;;;;;;;3.03;83.02;97490.88;5053043;28;20191;-58
2021/12/05 15:47:13;;;;;;;4.43;2.13;;;;;;;2.99;84.30;97496.41;5052437;28;20195;-57
2021/12/05 15:49:43;;;;;;;9.30;3.00;;;;;;;2.87;84.59;97499.06;5052551;28;20211;-57
2021/12/05 15:52:12;;;;;;;5.27;3.00;;;;;;;2.82;84.79;97503.00;5053182;28;20184;-57
2021/12/05 15:54:38;;;;;;;6.77;2.90;;;;;;;2.68;84.45;97499.81;5052806;28;20184;-58
2021/12/05 15:57:10;;;;;;;5.63;2.10;;;;;;;2.66;85.51;97501.72;5052415;28;20183;-58
2021/12/05 15:59:40;;;;;;;6.10;2.90;;;;;;;2.61;87.16;97511.56;5052114;28;20227;-55
2021/12/05 16:02:11;;;;;;;2.10;1.30;;;;;;;2.63;86.79;97507.94;5052328;28;20292;-57